Time,TemperatureF,DewpointF,PressureIn,WindDirection,WindDirectionDegrees,WindSpeedMPH,WindSpeedGustMPH,Humidity,HourlyPrecipIn,Conditions,Clouds,dailyrainin,SoftwareType,DateUTC
2013-09-19 00:05:00,73.8,56.5,29.93,North,0,13.4,33.7,55,0.00,,,0.00,WUHU21636XXSP,2013-09-19 05:05:00,
2013-09-19 00:15:00,72.5,57.2,29.94,North,0,3.5,32.4,59,0.00,,,0.00,WUHU21636XXSP,2013-09-19 05:15:00,
2013-09-19 00:25:00,72.0,57.7,29.94,North,0,5.5,15.2,61,0.00,,,0.00,WUHU21636XXSP,2013-09-19 05:25:00,
2013-09-19 00:35:00,71.6,57.4,29.94,North,0,4.9,10.9,61,0.00,,,0.00,WUHU21636XXSP,2013-09-19 05:35:00,
2013-09-19 00:45:00,71.2,57.0,29.93,North,0,2.6,7.1,61,0.00,,,0.00,WUHU21636XXSP,2013-09-19 05:45:00,
2013-09-19 00:55:00,71.2,57.4,29.93,North,0,0.8,4.4,62,0.00,,,0.00,WUHU21636XXSP,2013-09-19 05:55:00,
2013-09-19 01:05:00,71.1,56.8,29.94,North,0,0.0,0.8,61,0.00,,,0.00,WUHU21636XXSP,2013-09-19 06:05:00,
2013-09-19 01:15:00,70.9,56.7,29.94,North,0,0.0,0.0,62,0.00,,,0.00,WUHU21636XXSP,2013-09-19 06:15:00,
2013-09-19 01:25:00,70.9,56.7,29.95,North,0,0.0,2.6,62,0.00,,,0.00,WUHU21636XXSP,2013-09-19 06:25:00,
2013-09-19 01:35:00,70.5,57.2,29.94,North,0,0.0,0.0,63,0.00,,,0.00,WUHU21636XXSP,2013-09-19 06:35:00,
2013-09-19 01:45:00,70.3,57.0,29.94,North,0,0.0,3.3,63,0.00,,,0.00,WUHU21636XXSP,2013-09-19 06:45:00,
2013-09-19 01:55:00,70.2,57.7,29.94,ENE,67,0.0,0.0,65,0.00,,,0.00,WUHU21636XXSP,2013-09-19 06:55:00,
2013-09-19 02:05:00,69.6,57.6,29.94,ESE,112,0.0,4.9,66,0.00,,,0.00,WUHU21636XXSP,2013-09-19 07:05:00,
2013-09-19 02:15:00,69.3,57.7,29.95,ESE,112,0.0,1.5,67,0.00,,,0.00,WUHU21636XXSP,2013-09-19 07:15:00,
2013-09-19 02:25:00,69.1,57.6,29.94,ESE,112,0.4,0.4,67,0.00,,,0.00,WUHU21636XXSP,2013-09-19 07:25:00,
2013-09-19 02:35:00,69.1,57.6,29.95,ESE,112,1.1,3.1,68,0.00,,,0.00,WUHU21636XXSP,2013-09-19 07:35:00,
2013-09-19 02:45:00,68.9,57.7,29.95,ESE,112,0.0,2.0,68,0.00,,,0.00,WUHU21636XXSP,2013-09-19 07:45:00,
2013-09-19 02:55:00,68.7,58.1,29.95,ESE,112,0.0,3.3,69,0.00,,,0.00,WUHU21636XXSP,2013-09-19 07:55:00,
2013-09-19 03:05:00,68.4,57.7,29.95,ESE,112,0.0,2.9,69,0.00,,,0.00,WUHU21636XXSP,2013-09-19 08:05:00,
2013-09-19 03:15:00,68.4,57.7,29.95,ESE,112,2.9,2.9,69,0.00,,,0.00,WUHU21636XXSP,2013-09-19 08:15:00,
2013-09-19 03:25:00,68.4,57.7,29.96,ESE,112,0.0,2.9,69,0.00,,,0.00,WUHU21636XXSP,2013-09-19 08:25:00,
2013-09-19 03:35:00,67.8,58.1,29.99,WSW,247,3.3,7.8,71,0.00,,,0.00,WUHU21636XXSP,2013-09-19 08:35:00,
2013-09-19 03:45:00,67.3,57.9,29.98,West,270,0.8,3.3,72,0.00,,,0.00,WUHU21636XXSP,2013-09-19 08:45:00,
2013-09-19 03:55:00,67.3,58.3,29.97,NNW,337,0.0,4.6,73,0.00,,,0.00,WUHU21636XXSP,2013-09-19 08:55:00,
2013-09-19 04:05:00,67.6,58.3,29.96,NNW,337,0.0,0.0,72,0.00,,,0.00,WUHU21636XXSP,2013-09-19 09:05:00,
2013-09-19 04:15:00,67.6,58.3,29.97,NNW,337,0.0,0.0,72,0.00,,,0.00,WUHU21636XXSP,2013-09-19 09:15:00,
2013-09-19 04:25:00,67.6,58.3,29.98,NNW,337,0.0,0.0,73,0.00,,,0.00,WUHU21636XXSP,2013-09-19 09:25:00,
2013-09-19 04:35:00,67.5,59.9,29.97,NNW,337,0.0,0.0,77,0.02,,,0.02,WUHU21636XXSP,2013-09-19 09:35:00,
2013-09-19 04:45:00,66.4,60.1,29.97,NNW,337,0.0,0.0,81,0.06,,,0.06,WUHU21636XXSP,2013-09-19 09:45:00,
2013-09-19 04:55:00,65.5,60.1,29.96,NNW,337,0.0,0.0,83,0.08,,,0.08,WUHU21636XXSP,2013-09-19 09:55:00,
2013-09-19 05:05:00,64.9,60.3,29.97,NNW,337,3.3,3.3,85,0.08,,,0.08,WUHU21636XXSP,2013-09-19 10:05:00,
2013-09-19 05:15:00,64.2,59.5,29.97,NNW,337,0.4,3.3,86,0.08,,,0.08,WUHU21636XXSP,2013-09-19 10:15:00,
2013-09-19 05:25:00,64.0,59.7,29.96,NNW,337,0.0,1.5,86,0.08,,,0.08,WUHU21636XXSP,2013-09-19 10:25:00,
2013-09-19 05:35:00,63.7,59.4,29.93,NNW,337,0.0,3.1,87,0.08,,,0.08,WUHU21636XXSP,2013-09-19 10:35:00,
2013-09-19 05:45:00,63.7,59.4,29.93,NNW,337,0.0,0.0,87,0.08,,,0.08,WUHU21636XXSP,2013-09-19 10:45:00,
2013-09-19 05:55:00,63.3,59.4,29.95,NNW,337,0.0,2.4,87,0.08,,,0.08,WUHU21636XXSP,2013-09-19 10:55:00,
2013-09-19 06:05:00,63.1,59.5,29.96,NNW,337,1.1,1.1,88,0.00,,,0.08,WUHU21636XXSP,2013-09-19 11:05:00,
2013-09-19 06:15:00,63.0,59.4,29.98,WNW,292,6.2,6.9,88,0.00,,,0.08,WUHU21636XXSP,2013-09-19 11:15:00,
2013-09-19 06:25:00,62.2,58.6,29.99,NW,315,3.5,6.2,88,0.00,,,0.08,WUHU21636XXSP,2013-09-19 11:25:00,
2013-09-19 06:35:00,62.1,59.2,29.99,West,270,2.9,3.5,90,0.00,,,0.08,WUHU21636XXSP,2013-09-19 11:35:00,
2013-09-19 06:45:00,61.7,58.8,30.01,WSW,247,0.0,3.5,90,0.00,,,0.08,WUHU21636XXSP,2013-09-19 11:45:00,
2013-09-19 06:55:00,61.7,58.8,30.01,WSW,247,0.0,1.7,90,0.00,,,0.08,WUHU21636XXSP,2013-09-19 11:55:00,
2013-09-19 07:05:00,61.9,59.0,30.01,WSW,247,0.0,0.0,90,0.00,,,0.08,WUHU21636XXSP,2013-09-19 12:05:00,
2013-09-19 07:15:00,61.9,59.0,30.03,WSW,247,0.0,0.2,90,0.00,,,0.08,WUHU21636XXSP,2013-09-19 12:15:00,
2013-09-19 07:25:00,61.9,59.0,30.03,WSW,247,0.0,0.0,90,0.00,,,0.08,WUHU21636XXSP,2013-09-19 12:25:00,
2013-09-19 07:35:00,61.9,59.0,30.03,WSW,247,0.0,0.0,90,0.00,,,0.08,WUHU21636XXSP,2013-09-19 12:35:00,
2013-09-19 07:45:00,61.9,59.0,30.04,WSW,247,0.0,1.7,89,0.00,,,0.08,WUHU21636XXSP,2013-09-19 12:45:00,
2013-09-19 07:55:00,61.5,58.3,30.04,NW,315,3.8,8.2,89,0.00,,,0.08,WUHU21636XXSP,2013-09-19 12:55:00,
2013-09-19 08:05:00,61.5,58.3,30.04,NNW,337,3.5,4.2,89,0.00,,,0.08,WUHU21636XXSP,2013-09-19 13:05:00,
2013-09-19 08:15:00,61.9,58.3,30.04,NNE,22,6.2,15.6,88,0.00,,,0.08,WUHU21636XXSP,2013-09-19 13:15:00,
2013-09-19 08:25:00,62.2,58.6,30.04,North,0,3.8,16.7,88,0.00,,,0.08,WUHU21636XXSP,2013-09-19 13:25:00,
2013-09-19 08:35:00,62.4,58.5,30.04,North,0,7.1,18.7,87,0.00,,,0.08,WUHU21636XXSP,2013-09-19 13:35:00,
2013-09-19 08:45:00,62.8,58.5,30.03,NE,45,4.9,18.1,86,0.00,,,0.08,WUHU21636XXSP,2013-09-19 13:45:00,
2013-09-19 08:55:00,62.8,58.5,30.04,North,0,1.3,16.3,86,0.00,,,0.08,WUHU21636XXSP,2013-09-19 13:55:00,
2013-09-19 09:05:00,63.0,57.9,30.06,North,0,9.8,15.8,84,0.00,,,0.08,WUHU21636XXSP,2013-09-19 14:05:00,
2013-09-19 09:15:00,63.0,57.9,30.07,North,0,9.6,23.2,84,0.00,,,0.08,WUHU21636XXSP,2013-09-19 14:15:00,
2013-09-19 09:25:00,63.0,58.3,30.09,North,0,0.0,11.6,85,0.00,,,0.08,WUHU21636XXSP,2013-09-19 14:25:00,
2013-09-19 09:35:00,63.0,57.9,30.09,North,0,7.6,14.9,84,0.00,,,0.08,WUHU21636XXSP,2013-09-19 14:35:00,
2013-09-19 09:45:00,62.8,57.0,30.11,North,0,10.5,17.0,82,0.00,,,0.08,WUHU21636XXSP,2013-09-19 14:45:00,
2013-09-19 09:55:00,62.8,56.1,30.13,North,0,10.7,17.8,79,0.00,,,0.08,WUHU21636XXSP,2013-09-19 14:55:00,
2013-09-19 10:05:00,62.8,56.1,30.13,North,0,2.4,12.3,79,0.00,,,0.08,WUHU21636XXSP,2013-09-19 15:05:00,
2013-09-19 10:15:00,62.2,55.2,30.10,NNE,22,8.9,18.7,78,0.00,,,0.08,WUHU21636XXSP,2013-09-19 15:15:00,
2013-09-19 10:25:00,61.7,55.8,30.09,North,0,9.8,19.4,81,0.00,,,0.08,WUHU21636XXSP,2013-09-19 15:25:00,
2013-09-19 10:35:00,61.3,54.3,30.10,NE,45,6.9,29.0,78,0.00,,,0.08,WUHU21636XXSP,2013-09-19 15:35:00,
2013-09-19 10:45:00,61.3,54.3,30.13,North,0,4.0,24.8,78,0.00,,,0.08,WUHU21636XXSP,2013-09-19 15:45:00,
2013-09-19 10:55:00,61.5,53.8,30.14,NNW,337,9.6,23.9,76,0.00,,,0.08,WUHU21636XXSP,2013-09-19 15:55:00,
2013-09-19 11:05:00,61.9,53.1,30.14,NW,315,9.1,28.4,73,0.00,,,0.08,WUHU21636XXSP,2013-09-19 16:05:00,
2013-09-19 11:15:00,62.4,53.2,30.15,NNE,22,13.6,25.0,72,0.00,,,0.08,WUHU21636XXSP,2013-09-19 16:15:00,
2013-09-19 11:25:00,63.1,52.7,30.15,North,0,12.0,27.7,69,0.00,,,0.08,WUHU21636XXSP,2013-09-19 16:25:00,
2013-09-19 11:35:00,63.7,52.0,30.16,NNE,22,12.3,30.8,66,0.00,,,0.08,WUHU21636XXSP,2013-09-19 16:35:00,
2013-09-19 11:45:00,63.9,51.8,30.16,NNW,337,14.3,30.8,65,0.00,,,0.08,WUHU21636XXSP,2013-09-19 16:45:00,
2013-09-19 11:55:00,63.7,51.1,30.16,NE,45,13.1,36.4,64,0.00,,,0.08,WUHU21636XXSP,2013-09-19 16:55:00,
2013-09-19 12:05:00,64.0,52.0,30.17,NNE,22,12.5,31.5,65,0.00,,,0.08,WUHU21636XXSP,2013-09-19 17:05:00,
2013-09-19 12:15:00,64.0,52.0,30.17,NNW,337,12.9,26.1,65,0.00,,,0.08,WUHU21636XXSP,2013-09-19 17:15:00,
2013-09-19 12:25:00,64.0,52.0,30.17,North,0,9.3,27.7,65,0.00,,,0.08,WUHU21636XXSP,2013-09-19 17:25:00,
2013-09-19 12:35:00,64.4,52.3,30.17,NE,45,12.3,31.5,65,0.00,,,0.08,WUHU21636XXSP,2013-09-19 17:35:00,
2013-09-19 12:46:00,64.6,50.7,30.17,North,0,9.6,25.2,61,0.00,,,0.08,WUHU21636XXSP,2013-09-19 17:46:00,
2013-09-19 12:56:00,64.6,50.7,30.17,NNW,337,11.4,25.0,61,0.00,,,0.08,WUHU21636XXSP,2013-09-19 17:56:00,
2013-09-19 13:06:00,64.8,50.5,30.16,North,0,10.9,25.2,60,0.00,,,0.08,WUHU21636XXSP,2013-09-19 18:06:00,
2013-09-19 13:16:00,65.1,50.4,30.16,ENE,67,13.8,24.1,59,0.00,,,0.08,WUHU21636XXSP,2013-09-19 18:16:00,
2013-09-19 13:26:00,65.1,49.8,30.16,NE,45,10.9,33.3,58,0.00,,,0.08,WUHU21636XXSP,2013-09-19 18:26:00,
2013-09-19 13:36:00,65.8,51.1,30.16,NNE,22,11.1,24.6,59,0.00,,,0.08,WUHU21636XXSP,2013-09-19 18:36:00,
2013-09-19 13:46:00,66.0,50.7,30.16,NNE,22,5.5,23.2,58,0.00,,,0.08,WUHU21636XXSP,2013-09-19 18:46:00,
2013-09-19 13:56:00,67.1,52.2,30.15,East,90,11.6,19.4,59,0.00,,,0.08,WUHU21636XXSP,2013-09-19 18:56:00,
2013-09-19 14:06:00,68.5,53.1,30.15,NE,45,5.8,21.9,58,0.00,,,0.08,WUHU21636XXSP,2013-09-19 19:06:00,
2013-09-19 14:16:00,69.4,53.4,30.15,NNE,22,6.4,17.0,57,0.00,,,0.08,WUHU21636XXSP,2013-09-19 19:16:00,
2013-09-19 14:26:00,70.0,53.4,30.15,ENE,67,5.3,20.3,56,0.00,,,0.08,WUHU21636XXSP,2013-09-19 19:26:00,
2013-09-19 14:36:00,70.5,53.4,30.14,NE,45,3.5,14.9,55,0.00,,,0.08,WUHU21636XXSP,2013-09-19 19:36:00,
2013-09-19 14:46:00,70.5,54.5,30.14,NE,45,2.0,15.4,57,0.00,,,0.08,WUHU21636XXSP,2013-09-19 19:46:00,
2013-09-19 14:56:00,71.4,54.7,30.15,ENE,67,3.5,14.0,56,0.00,,,0.08,WUHU21636XXSP,2013-09-19 19:56:00,
2013-09-19 15:06:00,71.2,54.1,30.15,NNE,22,2.9,6.7,55,0.00,,,0.08,WUHU21636XXSP,2013-09-19 20:06:00,
2013-09-19 15:16:00,70.7,53.6,30.15,NNE,22,2.2,18.1,55,0.00,,,0.08,WUHU21636XXSP,2013-09-19 20:16:00,
2013-09-19 15:26:00,70.0,52.9,30.16,North,0,9.1,21.6,55,0.00,,,0.08,WUHU21636XXSP,2013-09-19 20:26:00,
2013-09-19 15:36:00,69.6,53.1,30.16,North,0,8.9,21.0,56,0.00,,,0.08,WUHU21636XXSP,2013-09-19 20:36:00,
2013-09-19 15:46:00,69.4,53.4,30.16,NW,315,12.3,20.8,57,0.00,,,0.08,WUHU21636XXSP,2013-09-19 20:46:00,
2013-09-19 15:56:00,69.4,52.9,30.16,NNE,22,8.5,20.5,56,0.00,,,0.08,WUHU21636XXSP,2013-09-19 20:56:00,
2013-09-19 16:06:00,68.7,53.2,30.16,NNW,337,9.8,21.4,58,0.00,,,0.08,WUHU21636XXSP,2013-09-19 21:06:00,
2013-09-19 16:16:00,68.5,54.1,30.16,NE,45,10.9,17.8,60,0.00,,,0.08,WUHU21636XXSP,2013-09-19 21:16:00,
2013-09-19 16:26:00,68.0,53.6,30.16,North,0,14.7,16.5,60,0.00,,,0.08,WUHU21636XXSP,2013-09-19 21:26:00,
2013-09-19 16:36:00,67.6,53.6,30.17,North,0,3.5,17.0,61,0.00,,,0.08,WUHU21636XXSP,2013-09-19 21:36:00,
2013-09-19 16:46:00,67.3,54.1,30.17,NNE,22,3.8,12.0,63,0.00,,,0.08,WUHU21636XXSP,2013-09-19 21:46:00,
2013-09-19 16:56:00,67.6,54.0,30.17,North,0,7.6,17.4,62,0.00,,,0.08,WUHU21636XXSP,2013-09-19 21:56:00,
2013-09-19 17:06:00,67.3,53.8,30.17,North,0,9.1,15.6,62,0.00,,,0.08,WUHU21636XXSP,2013-09-19 22:06:00,
2013-09-19 17:16:00,68.7,54.7,30.17,NNE,22,4.0,16.5,61,0.00,,,0.08,WUHU21636XXSP,2013-09-19 22:16:00,
2013-09-19 17:26:00,69.6,54.7,30.17,NW,315,6.4,12.7,59,0.00,,,0.08,WUHU21636XXSP,2013-09-19 22:26:00,
2013-09-19 17:36:00,70.0,53.4,30.17,North,0,12.0,21.9,56,0.00,,,0.08,WUHU21636XXSP,2013-09-19 22:36:00,
2013-09-19 17:46:00,69.4,52.9,30.16,North,0,12.0,17.4,56,0.00,,,0.08,WUHU21636XXSP,2013-09-19 22:46:00,
2013-09-19 17:56:00,68.5,52.2,30.17,NNW,337,8.9,16.7,56,0.00,,,0.08,WUHU21636XXSP,2013-09-19 22:56:00,
2013-09-19 18:06:00,68.0,52.0,30.17,ENE,67,4.9,15.4,57,0.00,,,0.08,WUHU21636XXSP,2013-09-19 23:06:00,
2013-09-19 18:16:00,68.4,52.0,30.18,North,0,8.0,18.7,56,0.00,,,0.08,WUHU21636XXSP,2013-09-19 23:16:00,
2013-09-19 18:26:00,68.2,50.7,30.17,NNE,22,4.9,19.0,54,0.00,,,0.08,WUHU21636XXSP,2013-09-19 23:26:00,
2013-09-19 18:36:00,67.6,51.3,30.17,North,0,7.3,19.9,56,0.00,,,0.08,WUHU21636XXSP,2013-09-19 23:36:00,
2013-09-19 18:46:00,67.1,50.7,30.17,North,0,9.1,17.2,56,0.00,,,0.08,WUHU21636XXSP,2013-09-19 23:46:00,
2013-09-19 18:56:00,65.8,50.0,30.17,NE,45,10.9,16.3,57,0.00,,,0.08,WUHU21636XXSP,2013-09-19 23:56:00,
2013-09-19 19:06:00,64.9,49.6,30.17,North,0,3.5,16.3,58,0.00,,,0.08,WUHU21636XXSP,2013-09-20 00:06:00,
2013-09-19 19:16:00,64.4,49.6,30.18,NNE,22,4.9,12.5,59,0.00,,,0.08,WUHU21636XXSP,2013-09-20 00:16:00,
2013-09-19 19:26:00,64.0,49.8,30.18,North,0,3.5,13.4,60,0.00,,,0.08,WUHU21636XXSP,2013-09-20 00:26:00,
2013-09-19 19:36:00,63.7,49.8,30.19,North,0,0.8,7.8,61,0.00,,,0.08,WUHU21636XXSP,2013-09-20 00:36:00,
2013-09-19 19:46:00,63.7,49.8,30.19,North,0,0.0,4.2,61,0.00,,,0.08,WUHU21636XXSP,2013-09-20 00:46:00,
2013-09-19 19:56:00,63.3,49.5,30.19,North,0,0.8,3.1,61,0.00,,,0.08,WUHU21636XXSP,2013-09-20 00:56:00,
2013-09-19 20:06:00,63.3,49.5,30.20,North,0,1.3,3.1,62,0.00,,,0.08,WUHU21636XXSP,2013-09-20 01:06:00,
2013-09-19 20:16:00,63.1,50.2,30.21,North,0,0.0,1.3,63,0.00,,,0.08,WUHU21636XXSP,2013-09-20 01:16:00,
2013-09-19 20:26:00,62.8,49.8,30.21,North,0,0.0,0.0,63,0.00,,,0.08,WUHU21636XXSP,2013-09-20 01:26:00,
2013-09-19 20:36:00,62.4,50.0,30.21,North,0,0.0,0.0,64,0.00,,,0.08,WUHU21636XXSP,2013-09-20 01:36:00,
2013-09-19 20:46:00,62.2,49.8,30.21,North,0,0.0,0.0,66,0.00,,,0.08,WUHU21636XXSP,2013-09-20 01:46:00,
2013-09-19 20:56:00,61.9,50.4,30.22,North,0,0.0,0.0,66,0.00,,,0.08,WUHU21636XXSP,2013-09-20 01:56:00,
2013-09-19 21:06:00,61.5,50.0,30.22,North,0,0.0,0.0,67,0.00,,,0.08,WUHU21636XXSP,2013-09-20 02:06:00,
2013-09-19 21:16:00,61.3,50.2,30.23,North,0,0.0,0.0,67,0.00,,,0.08,WUHU21636XXSP,2013-09-20 02:16:00,
2013-09-19 21:26:00,61.3,50.2,30.24,North,0,0.0,0.0,67,0.00,,,0.08,WUHU21636XXSP,2013-09-20 02:26:00,
2013-09-19 21:36:00,61.3,50.2,30.24,North,0,0.0,0.0,67,0.00,,,0.08,WUHU21636XXSP,2013-09-20 02:36:00,
2013-09-19 21:46:00,61.2,50.0,30.24,North,0,0.0,0.0,67,0.00,,,0.08,WUHU21636XXSP,2013-09-20 02:46:00,
2013-09-19 21:56:00,61.0,50.0,30.25,North,0,0.0,0.0,67,0.00,,,0.08,WUHU21636XXSP,2013-09-20 02:56:00,
2013-09-19 22:06:00,61.0,50.0,30.25,North,0,0.0,0.0,68,0.00,,,0.08,WUHU21636XXSP,2013-09-20 03:06:00,
2013-09-19 22:16:00,60.6,50.0,30.26,North,0,0.0,0.0,68,0.00,,,0.08,WUHU21636XXSP,2013-09-20 03:16:00,
2013-09-19 22:26:00,60.4,50.2,30.26,North,0,0.0,0.0,69,0.00,,,0.08,WUHU21636XXSP,2013-09-20 03:26:00,
2013-09-19 22:36:00,60.1,49.8,30.26,North,0,0.0,0.0,69,0.00,,,0.08,WUHU21636XXSP,2013-09-20 03:36:00,
2013-09-19 22:46:00,59.7,49.5,30.26,North,0,0.0,0.0,69,0.00,,,0.08,WUHU21636XXSP,2013-09-20 03:46:00,
2013-09-19 22:56:00,59.5,49.3,30.27,North,0,0.0,0.0,69,0.00,,,0.08,WUHU21636XXSP,2013-09-20 03:56:00,
2013-09-19 23:06:00,59.4,49.1,30.27,North,0,0.0,0.0,69,0.00,,,0.08,WUHU21636XXSP,2013-09-20 04:06:00,
2013-09-19 23:16:00,59.0,48.7,30.27,North,0,0.0,2.6,69,0.00,,,0.08,WUHU21636XXSP,2013-09-20 04:16:00,
2013-09-19 23:26:00,58.8,49.1,30.27,North,0,0.0,0.0,70,0.00,,,0.08,WUHU21636XXSP,2013-09-20 04:26:00,
2013-09-19 23:36:00,58.3,48.9,30.27,North,0,0.0,0.0,71,0.00,,,0.08,WUHU21636XXSP,2013-09-20 04:36:00,
2013-09-19 23:46:00,58.1,48.7,30.28,North,0,0.0,0.0,71,0.00,,,0.08,WUHU21636XXSP,2013-09-20 04:46:00,
2013-09-19 23:56:00,57.7,48.4,30.28,North,0,0.0,0.0,71,0.00,,,0.08,WUHU21636XXSP,2013-09-20 04:56:00,